Data for 12/24/2010

Time Sea-Level Adjusted Pressure Absolute Pressure Temperature Relative Humidity Dew Point   
(mb) (inHg) (mb) (inHg) (C) (F) (%) (C) (F)
00:05 1023 30.21 853 25.19 -5.7 21.7 82 -8.3 17.1
00:10 1023 30.21 853 25.19 -6.1 21.1 85 -8.2 17.3
00:15 1024 30.24 853 25.19 -6 21.2 87 -7.8 17.9
00:20 1024 30.24 853 25.19 -5.3 22.4 87 -7.2 19
00:25 1024 30.24 853 25.19 -4.9 23.1 81 -7.7 18.1
00:30 1024 30.24 853 25.19 -5.6 21.9 84 -7.9 17.9
00:35 1024 30.24 853 25.19 -5.6 21.9 83 -8.1 17.5
00:40 1024 30.24 853 25.19 -5.1 22.8 80 -8 17.7
00:45 1023 30.21 853 25.19 -4.8 23.4 80 -7.7 18.1
00:50 1023 30.21 853 25.19 -4.8 23.3 79 -7.9 17.7
00:55 1023 30.21 853 25.19 -4.6 23.7 78 -7.8 17.9
01:00 1023 30.21 853 25.19 -4.8 23.4 79 -7.9 17.9
01:05 1024 30.24 853 25.19 -4.9 23.1 81 -7.7 18.1
01:10 1024 30.24 853 25.19 -5.1 22.8 82 -7.7 18.2
01:15 1024 30.24 853 25.19 -5.2 22.6 83 -7.7 18.2
01:20 1024 30.24 853 25.19 -5.4 22.2 84 -7.8 18
01:25 1024 30.24 853 25.19 -5.6 21.9 85 -7.8 17.9
01:30 1024 30.24 853 25.19 -5.5 22.1 84 -7.8 17.9
01:35 1024 30.24 853 25.19 -5.7 21.8 85 -7.8 17.9
01:40 1024 30.24 853 25.19 -5.9 21.4 86 -7.9 17.8
01:45 1024 30.24 853 25.19 -6 21.2 86 -7.9 17.7
01:50 1024 30.24 853 25.19 -6.1 21.1 86 -8 17.6
01:55 1024 30.24 853 25.19 -6 21.2 86 -8.1 17.5
02:00 1024 30.24 853 25.19 -6.1 21 86 -8 17.5
02:05 1024 30.24 853 25.19 -5.8 21.5 84 -8.1 17.4
02:10 1024 30.24 854 25.22 -5.5 22.1 84 -7.9 17.9
02:15 1024 30.24 854 25.22 -5 23 82 -7.6 18.4
02:20 1025 30.27 854 25.22 -4.8 23.4 80 -7.7 18.2
02:25 1025 30.27 854 25.22 -4.7 23.5 79 -7.9 17.9
02:30 1025 30.27 854 25.22 -4.9 23.2 78 -8.2 17.2
02:35 1025 30.27 854 25.22 -4.9 23.1 77 -8.4 16.9
02:40 1025 30.27 854 25.22 -5.1 22.9 80 -8.1 17.4
02:45 1025 30.27 854 25.22 -4.9 23.2 79 -8 17.5
02:50 1025 30.27 854 25.22 -4.7 23.5 74 -8.7 16.4
02:55 1025 30.27 854 25.22 -4.7 23.5 73 -8.8 16.1
03:00 1025 30.27 854 25.22 -5.3 22.4 78 -8.6 16.5
03:05 1025 30.27 854 25.22 -5.7 21.8 80 -8.6 16.4
03:10 1025 30.27 854 25.22 -5.9 21.4 81 -8.7 16.4
03:15 1025 30.27 854 25.22 -6.2 20.8 81 -8.9 15.9
03:20 1025 30.27 854 25.22 -6.1 21 82 -8.7 16.4
03:25 1025 30.27 854 25.22 -6.4 20.5 85 -8.5 16.7
03:30 1025 30.27 854 25.22 -6.2 20.8 85 -8.3 17
03:35 1025 30.27 854 25.22 -6 21.1 85 -8.2 17.2
03:40 1025 30.27 854 25.22 -6.1 21 85 -8.3 17.1
03:45 1025 30.27 854 25.22 -6.2 20.9 85 -8.3 17
03:50 1025 30.27 854 25.22 -6.1 21 85 -8.2 17.2
03:55 1025 30.27 854 25.22 -6.2 20.9 85 -8.3 17.1
04:00 1025 30.27 854 25.22 -6.3 20.6 87 -8.2 17.2
04:05 1025 30.27 854 25.22 -6.1 21 86 -8.2 17.3
04:10 1025 30.27 854 25.22 -5.9 21.5 85 -8 17.7
04:15 1025 30.27 854 25.22 -5.6 21.9 84 -7.9 17.8
04:20 1025 30.27 854 25.22 -5.6 22 83 -8 17.6
04:25 1025 30.27 854 25.22 -6 21.3 84 -8.3 17.1
04:30 1025 30.27 854 25.22 -6.2 20.8 86 -8.3 17.1
04:35 1025 30.27 854 25.22 -6.3 20.7 86 -8.3 17
04:40 1025 30.27 854 25.22 -6 21.1 85 -8.2 17.3
04:45 1025 30.27 854 25.22 -5.8 21.5 84 -8.1 17.4
04:50 1025 30.27 854 25.22 -5.8 21.6 84 -8 17.6
04:55 1025 30.27 854 25.22 -5.6 22 83 -8 17.5
05:00 1025 30.27 854 25.22 -5.5 22.1 82 -8.1 17.5
05:05 1025 30.27 854 25.22 -5.5 22.1 83 -8 17.5
05:10 1025 30.27 854 25.22 -5.5 22.2 82 -8 17.6
05:15 1025 30.27 854 25.22 -5.4 22.3 80 -8.2 17.2
05:20 1025 30.27 854 25.22 -5.5 22 81 -8.3 17.1
05:25 1025 30.27 854 25.22 -6 21.2 82 -8.6 16.5
05:30 1025 30.27 854 25.22 -6.1 21 83 -8.5 16.8
05:35 1025 30.27 854 25.22 -6.5 20.3 83 -8.9 16
05:40 1025 30.27 854 25.22 -6 21.3 81 -8.7 16.4
05:45 1025 30.27 854 25.22 -5.4 22.3 83 -7.9 17.8
05:50 1025 30.27 854 25.22 -5.2 22.6 83 -7.7 18.2
05:55 1025 30.27 854 25.22 -5.5 22 83 -8.1 17.5
06:00 1025 30.27 854 25.22 -6.1 20.9 84 -8.4 17
06:05 1025 30.27 854 25.22 -6.4 20.4 86 -8.4 16.9
06:10 1025 30.27 854 25.22 -6.2 20.8 84 -8.5 16.6
06:15 1025 30.27 854 25.22 -5.9 21.4 83 -8.4 16.9
06:20 1025 30.27 854 25.22 -5.6 21.8 82 -8.3 17
06:25 1025 30.27 854 25.22 -5.7 21.7 82 -8.2 17.2
06:30 1025 30.27 854 25.22 -5.8 21.6 83 -8.3 17.1
06:35 1025 30.27 854 25.22 -6 21.1 83 -8.4 16.8
06:40 1025 30.27 854 25.22 -6.2 20.8 84 -8.5 16.6
06:45 1025 30.27 854 25.22 -6.3 20.7 84 -8.6 16.6
06:50 1025 30.27 854 25.22 -6.4 20.5 85 -8.6 16.5
06:55 1025 30.27 854 25.22 -6.2 20.9 85 -8.3 17
07:00 1025 30.27 854 25.22 -6.2 20.8 85 -8.4 16.9
07:05 1025 30.27 854 25.22 -6.3 20.6 86 -8.4 16.9
07:10 1025 30.27 854 25.22 -6 21.1 84 -8.3 17
07:15 1025 30.27 854 25.22 -6.2 20.8 84 -8.5 16.7
07:20 1025 30.27 854 25.22 -6.5 20.2 86 -8.5 16.6
07:25 1025 30.27 854 25.22 -6.4 20.5 87 -8.3 17.1
07:30 1025 30.27 854 25.22 -6.3 20.6 83 -8.7 16.3
07:35 1025 30.27 854 25.22 -6.5 20.4 83 -8.8 16.1
07:40 1025 30.27 854 25.22 -6.9 19.6 88 -8.5 16.6
07:45 1025 30.27 854 25.22 -6.2 20.8 83 -8.7 16.4
07:50 1025 30.27 854 25.22 -6.5 20.4 84 -8.7 16.3
07:55 1025 30.27 854 25.22 -6.6 20.1 83 -9 15.7
08:00 1025 30.27 854 25.22 -7 19.4 85 -9.1 15.6
08:05 1025 30.27 854 25.22 -7 19.4 86 -9 15.8
08:10 1025 30.27 854 25.22 -6.6 20.1 84 -8.9 16
08:15 1025 30.27 854 25.22 -6.6 20.2 84 -8.9 16
08:20 1025 30.27 854 25.22 -6.5 20.3 84 -8.8 16.2
08:25 1025 30.27 854 25.22 -6.3 20.6 83 -8.8 16.1
08:30 1025 30.27 854 25.22 -5.9 21.3 81 -8.6 16.4
08:35 1025 30.27 854 25.22 -5.5 22 80 -8.5 16.6
08:40 1025 30.27 854 25.22 -5.1 22.7 78 -8.4 16.9
08:45 1025 30.27 854 25.22 -4.9 23.3 76 -8.5 16.7
08:50 1025 30.27 854 25.22 -4.8 23.3 77 -8.3 17
08:55 1025 30.27 854 25.22 -4.6 23.6 74 -8.6 16.6
09:00 1025 30.27 854 25.22 -4.6 23.8 75 -8.4 16.9
09:05 1025 30.27 854 25.22 -4.5 23.8 73 -8.7 16.3
09:10 1025 30.27 854 25.22 -4.7 23.6 74 -8.7 16.3
09:15 1025 30.27 854 25.22 -4.9 23.2 74 -8.9 16
09:20 1025 30.27 855 25.25 -4.6 23.7 73 -8.8 16.2
09:25 1025 30.27 855 25.25 -4.5 23.8 71 -9.1 15.7
09:30 1025 30.27 855 25.25 -3.9 24.9 67 -9.1 15.6
09:35 1025 30.27 855 25.25 -3.8 25.1 70 -8.5 16.6
09:40 1025 30.27 855 25.25 -3.9 24.9 70 -8.6 16.5
09:45 1026 30.3 855 25.25 -4.2 24.4 71 -8.7 16.3
09:50 1026 30.3 855 25.25 -3.7 25.3 69 -8.7 16.4
09:55 1026 30.3 855 25.25 -3 26.7 65 -8.6 16.5
10:00 1026 30.3 855 25.25 -3.1 26.4 67 -8.4 16.8
10:05 1026 30.3 855 25.25 -2.8 26.9 65 -8.5 16.7
10:10 1026 30.3 855 25.25 -2.1 28.3 64 -8.1 17.5
10:15 1026 30.3 855 25.25 -2.1 28.3 63 -8.1 17.4
10:20 1026 30.3 855 25.25 -2.1 28.3 63 -8.1 17.4
10:25 1026 30.3 855 25.25 -1.8 28.8 62 -8.1 17.3
10:30 1026 30.3 855 25.25 -1.5 29.2 62 -8 17.6
10:35 1026 30.3 855 25.25 -1.3 29.7 61 -7.9 17.7
10:40 1026 30.3 855 25.25 -1.2 29.9 60 -8 17.5
10:45 1026 30.3 855 25.25 -1.4 29.6 62 -7.7 18.1
10:50 1026 30.3 855 25.25 -1.6 29.2 65 -7.4 18.8
10:55 1026 30.3 855 25.25 -1.7 28.9 65 -7.3 18.8
11:00 1026 30.3 855 25.25 -1.9 28.5 66 -7.4 18.7
11:05 1026 30.3 855 25.25 -1.7 28.9 63 -7.9 17.8
11:10 1026 30.3 855 25.25 -0.7 30.7 61 -7.5 18.6
11:15 1026 30.3 855 25.25 -0.4 31.4 58 -7.5 18.4
11:20 1026 30.3 855 25.25 -0.2 31.7 58 -7.6 18.4
11:25 1026 30.3 855 25.25 -0.1 31.8 57 -7.7 18.1
11:30 1026 30.3 855 25.25 0 32 57 -7.5 18.6
11:35 1026 30.3 855 25.25 -0.2 31.6 57 -7.7 18.2
11:40 1026 30.3 855 25.25 -0 31.9 57 -7.7 18.2
11:45 1026 30.3 855 25.25 0.3 32.5 55 -7.7 18.1
11:50 1025 30.27 855 25.25 -0.2 31.7 57 -7.6 18.3
11:55 1025 30.27 854 25.22 -0.2 31.7 56 -7.9 17.8
12:00 1025 30.27 854 25.22 0.2 32.3 56 -7.6 18.3
12:05 1025 30.27 854 25.22 -0 32 55 -8 17.7
12:10 1025 30.27 854 25.22 -0.1 31.9 58 -7.5 18.6
12:15 1025 30.27 854 25.22 -0.5 31 59 -7.7 18.2
12:20 1025 30.27 854 25.22 -0.6 31 58 -7.8 17.9
12:25 1025 30.27 854 25.22 -0.8 30.6 62 -7.2 19
12:30 1025 30.27 854 25.22 -0.8 30.5 60 -7.5 18.4
12:35 1025 30.27 854 25.22 -0.2 31.7 57 -7.8 18
12:40 1025 30.27 854 25.22 0.6 33.1 53 -7.8 17.9
12:45 1025 30.27 854 25.22 1.2 34.1 53 -7.5 18.6
12:50 1025 30.27 854 25.22 0.9 33.7 54 -7.3 18.9
12:55 1025 30.27 854 25.22 0.5 32.8 57 -7 19.3
13:00 1025 30.27 854 25.22 0.2 32.3 58 -7 19.3
13:05 1025 30.27 854 25.22 0.4 32.7 59 -6.7 19.9
13:10 1025 30.27 854 25.22 0.6 33 57 -7.1 19.2
13:15 1025 30.27 854 25.22 0.2 32.4 59 -6.9 19.6
13:20 1025 30.27 854 25.22 0.1 32.1 58 -7.2 19.1
13:25 1025 30.27 854 25.22 -0.1 31.9 58 -7.3 18.9
13:30 1025 30.27 854 25.22 0.1 32.1 59 -7.1 19.2
13:35 1025 30.27 854 25.22 0.1 32.2 57 -7.5 18.6
13:40 1025 30.27 854 25.22 0.3 32.6 57 -7.3 18.8
13:45 1025 30.27 854 25.22 0.6 33.2 56 -7.2 19.1
13:50 1025 30.27 854 25.22 0.8 33.5 56 -7 19.4
13:55 1025 30.27 854 25.22 0.8 33.4 57 -6.7 19.9
14:00 1025 30.27 854 25.22 0.8 33.4 57 -6.9 19.6
14:05 1025 30.27 854 25.22 1.2 34.1 56 -6.6 20.2
14:10 1025 30.27 854 25.22 1.2 34.2 57 -6.5 20.4
14:15 1025 30.27 854 25.22 1.7 35.1 54 -6.6 20
14:20 1025 30.27 854 25.22 1.9 35.4 52 -6.9 19.6
14:25 1025 30.27 854 25.22 1.7 35.1 55 -6.3 20.7
14:30 1025 30.27 854 25.22 1.6 34.9 54 -6.8 19.8
14:35 1025 30.27 854 25.22 1.6 34.8 55 -6.5 20.2
14:40 1025 30.27 854 25.22 1.5 34.6 54 -6.8 19.8
14:45 1025 30.27 854 25.22 1.3 34.4 57 -6.3 20.7
14:50 1025 30.27 854 25.22 0.9 33.6 57 -6.7 19.9
14:55 1025 30.27 854 25.22 0.8 33.5 58 -6.5 20.3
15:00 1025 30.27 854 25.22 0.1 32.2 60 -6.7 20
15:05 1025 30.27 854 25.22 0.1 32.3 60 -6.6 20.1
15:10 1025 30.27 854 25.22 0.1 32.1 60 -6.8 19.7
15:15 1024 30.24 854 25.22 0.1 32.2 60 -6.7 19.9
15:20 1024 30.24 854 25.22 0.2 32.3 60 -6.6 20.1
15:25 1024 30.24 854 25.22 0.3 32.6 58 -6.9 19.6
15:30 1024 30.24 854 25.22 0.9 33.6 56 -6.8 19.7
15:35 1024 30.24 854 25.22 0.9 33.6 58 -6.5 20.3
15:40 1024 30.24 854 25.22 0.8 33.4 56 -7 19.4
15:45 1024 30.24 854 25.22 0.8 33.5 57 -6.7 19.9
15:50 1024 30.24 854 25.22 0.7 33.2 58 -6.8 19.8
15:55 1024 30.24 854 25.22 0.2 32.3 59 -6.9 19.6
16:00 1024 30.24 854 25.22 0.1 32.2 58 -7.1 19.2
16:05 1024 30.24 854 25.22 -0 31.9 60 -6.9 19.6
16:10 1024 30.24 854 25.22 -0.2 31.6 61 -6.9 19.5
16:15 1025 30.27 854 25.22 -0.6 30.9 62 -7.1 19.3
16:20 1025 30.27 854 25.22 -1 30.3 64 -7 19.4
16:25 1025 30.27 854 25.22 -1.5 29.3 65 -7.2 19.1
16:30 1025 30.27 854 25.22 -1.9 28.5 67 -7.3 18.8
16:35 1024 30.24 854 25.22 -2.4 27.7 68 -7.4 18.6
16:40 1024 30.24 854 25.22 -2.7 27.1 69 -7.5 18.4
16:45 1024 30.24 854 25.22 -3 26.6 71 -7.5 18.5
16:50 1024 30.24 854 25.22 -3.2 26.3 73 -7.3 18.8
16:55 1024 30.24 854 25.22 -3.2 26.2 73 -7.4 18.7
17:00 1024 30.24 854 25.22 -3.2 26.2 73 -7.5 18.6
17:05 1024 30.24 854 25.22 -3.1 26.4 72 -7.5 18.5
17:10 1024 30.24 853 25.19 -3.1 26.5 72 -7.5 18.5
17:15 1024 30.24 853 25.19 -3.2 26.3 72 -7.6 18.3
17:20 1024 30.24 853 25.19 -3.1 26.5 71 -7.6 18.3
17:25 1024 30.24 854 25.22 -3 26.6 70 -7.7 18.2
17:30 1024 30.24 854 25.22 -3.1 26.4 71 -7.6 18.3
17:35 1024 30.24 854 25.22 -3.2 26.3 71 -7.6 18.2
17:40 1024 30.24 853 25.19 -3.4 25.8 73 -7.6 18.3
17:45 1024 30.24 853 25.19 -3.8 25.2 73 -7.9 17.8
17:50 1024 30.24 853 25.19 -4.1 24.6 75 -7.8 17.9
17:55 1024 30.24 854 25.22 -4.3 24.3 77 -7.8 17.9
18:00 1024 30.24 854 25.22 -4.2 24.5 75 -8 17.6
18:05 1024 30.24 854 25.22 -4.1 24.7 74 -8 17.7
18:10 1024 30.24 854 25.22 -4.1 24.6 74 -8.1 17.5
18:15 1024 30.24 854 25.22 -4.4 24.2 73 -8.6 16.6
18:20 1024 30.24 854 25.22 -4.7 23.5 74 -8.7 16.4
18:25 1024 30.24 854 25.22 -5 23 76 -8.7 16.4
18:30 1024 30.24 854 25.22 -5.2 22.6 79 -8.4 17
18:35 1024 30.24 853 25.19 -4.8 23.3 75 -8.6 16.6
18:40 1024 30.24 853 25.19 -4.6 23.8 77 -8 17.6
18:45 1024 30.24 853 25.19 -4.7 23.5 76 -8.4 16.9
18:50 1024 30.24 853 25.19 -5.3 22.5 76 -8.8 16.1
18:55 1024 30.24 853 25.19 -5.6 22 76 -9.1 15.5
19:00 1024 30.24 853 25.19 -5.7 21.8 81 -8.4 16.9
19:05 1024 30.24 853 25.19 -5.8 21.6 78 -8.9 15.9
19:10 1024 30.24 853 25.19 -6.2 20.8 81 -8.9 16
19:15 1024 30.24 853 25.19 -6 21.2 81 -8.7 16.3
19:20 1024 30.24 853 25.19 -5.5 22 81 -8.4 16.9
19:25 1024 30.24 853 25.19 -5 23 78 -8.2 17.2
19:30 1024 30.24 853 25.19 -4.9 23.1 79 -8 17.6
19:35 1024 30.24 853 25.19 -4.5 23.9 77 -7.9 17.7
19:40 1024 30.24 853 25.19 -4.3 24.3 76 -7.9 17.7
19:45 1024 30.24 853 25.19 -4.2 24.4 75 -8.1 17.5
19:50 1024 30.24 853 25.19 -4.2 24.4 75 -8 17.6
19:55 1024 30.24 853 25.19 -4.2 24.4 73 -8.3 17
20:00 1024 30.24 853 25.19 -4.3 24.2 75 -8.1 17.4
20:05 1024 30.24 853 25.19 -4.4 24 73 -8.5 16.7
20:10 1024 30.24 853 25.19 -4.7 23.6 75 -8.4 16.9
20:15 1024 30.24 853 25.19 -4.3 24.2 75 -8.2 17.3
20:20 1023 30.21 853 25.19 -4.1 24.6 75 -7.9 17.7
20:25 1024 30.24 853 25.19 -3.8 25.2 73 -7.9 17.8
20:30 1023 30.21 853 25.19 -3.3 26.1 70 -8.1 17.4
20:35 1023 30.21 853 25.19 -3.1 26.4 70 -7.8 17.9
20:40 1023 30.21 853 25.19 -3.1 26.4 69 -8.1 17.4
20:45 1023 30.21 853 25.19 -3.2 26.2 69 -8.2 17.2
20:50 1023 30.21 853 25.19 -3.6 25.6 70 -8.2 17.3
20:55 1023 30.21 853 25.19 -4.3 24.3 74 -8.2 17.3
21:00 1023 30.21 853 25.19 -4.2 24.4 69 -9 15.8
21:05 1023 30.21 853 25.19 -4.4 24.1 68 -9.4 15.1
21:10 1023 30.21 853 25.19 -5.3 22.4 71 -9.9 14.2
21:15 1023 30.21 853 25.19 -5.9 21.3 74 -9.9 14.2
21:20 1023 30.21 853 25.19 -5.7 21.7 74 -9.6 14.7
21:25 1023 30.21 853 25.19 -5.7 21.7 76 -9.3 15.3
21:30 1023 30.21 853 25.19 -6 21.2 78 -9.3 15.3
21:35 1023 30.21 853 25.19 -6.1 21 79 -9.2 15.5
21:40 1023 30.21 852 25.16 -5.9 21.4 79 -9 15.7
21:45 1023 30.21 852 25.16 -5.9 21.4 77 -9.3 15.2
21:50 1023 30.21 852 25.16 -5.7 21.8 77 -9.1 15.5
21:55 1023 30.21 852 25.16 -5.3 22.5 74 -9.2 15.4
22:00 1023 30.21 852 25.16 -5.6 22 76 -9.2 15.4
22:05 1023 30.21 852 25.16 -6.1 21 80 -9 15.7
22:10 1023 30.21 852 25.16 -6 21.2 79 -9.1 15.6
22:15 1023 30.21 852 25.16 -5.4 22.4 77 -8.8 16.2
22:20 1023 30.21 852 25.16 -6 21.2 78 -9.3 15.3
22:25 1023 30.21 852 25.16 -6.5 20.4 80 -9.4 15.1
22:30 1023 30.21 852 25.16 -6.4 20.4 81 -9.1 15.6
22:35 1023 30.21 852 25.16 -6.1 21.1 79 -9.1 15.7
22:40 1023 30.21 852 25.16 -5.7 21.7 80 -8.6 16.5
22:45 1023 30.21 852 25.16 -5.5 22.2 78 -8.8 16.2
22:50 1023 30.21 853 25.19 -5.8 21.6 77 -9.1 15.6
22:55 1023 30.21 853 25.19 -5.8 21.5 77 -9.2 15.5
23:00 1023 30.21 853 25.19 -5.8 21.5 75 -9.5 14.8
23:05 1023 30.21 853 25.19 -6.5 20.4 81 -9.3 15.3
23:10 1023 30.21 853 25.19 -6.8 19.8 83 -9.2 15.5
23:15 1023 30.21 853 25.19 -6.1 21 79 -9.1 15.6
23:20 1023 30.21 853 25.19 -5.4 22.4 77 -8.7 16.3
23:25 1023 30.21 853 25.19 -5 23 76 -8.6 16.6
23:30 1023 30.21 853 25.19 -5 22.9 76 -8.6 16.5
23:35 1023 30.21 853 25.19 -5.5 22.1 77 -8.9 15.9
23:40 1023 30.21 853 25.19 -5.4 22.3 78 -8.6 16.5
23:45 1023 30.21 853 25.19 -5.4 22.4 78 -8.6 16.5
23:50 1023 30.21 852 25.16 -5 23 77 -8.5 16.8
23:55 1023 30.21 852 25.16 -5 23 76 -8.5 16.6
24:00 1023 30.21 852 25.16 -4.8 23.3 75 -8.6 16.5